Ningbo Seal — VRJD3 — position and weather

sailwx.info

Track history (hours):
 
Tides and Currents Weather Stations Pressure Air Temp Water Temp Dewpoint Dewpoint Depression Visibility Wind Speed Wind Dir Waves Ship Positions

Ningbo Seal

Last reported at 2015-Apr-30 16:18 UTC. Time now 2015-May-03 19:54 UTC.
Position N 29°52' W 089°55'.

Length 224 m; draft 11.5 m.

Type: Cargo ship. MMSI: 477628100.

Date/timePositionNaut miles runAvg speedWind from/ knotsBaromVisibWave heightAir tempDewpointWater temp
2015-Apr-30 16:18N 29°52' W 089°55'911.4
2015-Apr-30 15:30N 29°58' W 090°03'9 4.5
2015-Apr-30 13:32N 29°56' W 090°13'  
2015-Apr-27 11:18N 29°56' W 090°13'0 0.0
2015-Apr-27 10:30N 29°56' W 090°13'0 0.0
2015-Apr-27 09:18N 29°56' W 090°13'0 0.0
2015-Apr-27 08:24N 29°56' W 090°13'0 0.0
2015-Apr-26 14:06N 29°56' W 090°13'0 0.0
2015-Apr-26 12:18N 29°56' W 090°13'  
2015-Apr-23 06:18N 29°56' W 090°13'4 0.5
2015-Apr-22 22:14N 29°56' W 090°08'4 5.9
2015-Apr-22 21:30N 29°57' W 090°04'6 6.4
2015-Apr-22 20:32N 29°55' W 089°57'6 5.1
2015-Apr-22 19:26N 29°50' W 089°59'1 0.2
2015-Apr-22 12:23N 29°49' W 090°00'0 0.0
2015-Apr-22 10:17N 29°49' W 090°00'0 0.0
2015-Apr-22 08:26N 29°49' W 090°00'0 0.0
2015-Apr-21 07:14N 29°49' W 090°00'0 0.0
2015-Apr-20 18:32N 29°49' W 090°00'  
Track history (hours):
 
Tides and Currents Weather Stations Pressure Air Temp Water Temp Dewpoint Dewpoint Depression Visibility Wind Speed Wind Dir Waves Ship Positions

Ningbo Seal

Last reported at 2015-Apr-30 16:18 UTC. Time now 2015-May-03 19:54 UTC.
Position N 29°52' W 089°55'.

Length 224 m; draft 11.5 m.

Type: Cargo ship. MMSI: 477628100.

Date/timePositionNaut miles runAvg speedWind from/ knotsBaromVisibWave heightAir tempDewpointWater temp
2015-Apr-30 16:18N 29°52' W 089°55'911.4
2015-Apr-30 15:30N 29°58' W 090°03'9 4.5
2015-Apr-30 13:32N 29°56' W 090°13'  
2015-Apr-27 11:18N 29°56' W 090°13'0 0.0
2015-Apr-27 10:30N 29°56' W 090°13'0 0.0
2015-Apr-27 09:18N 29°56' W 090°13'0 0.0
2015-Apr-27 08:24N 29°56' W 090°13'0 0.0
2015-Apr-26 14:06N 29°56' W 090°13'0 0.0
2015-Apr-26 12:18N 29°56' W 090°13'  
2015-Apr-23 06:18N 29°56' W 090°13'4 0.5
2015-Apr-22 22:14N 29°56' W 090°08'4 5.9
2015-Apr-22 21:30N 29°57' W 090°04'6 6.4
2015-Apr-22 20:32N 29°55' W 089°57'6 5.1
2015-Apr-22 19:26N 29°50' W 089°59'1 0.2
2015-Apr-22 12:23N 29°49' W 090°00'0 0.0
2015-Apr-22 10:17N 29°49' W 090°00'0 0.0
2015-Apr-22 08:26N 29°49' W 090°00'0 0.0
2015-Apr-21 07:14N 29°49' W 090°00'0 0.0
2015-Apr-20 18:32N 29°49' W 090°00'  

Dump ship's entire track history